Time;durP1;ratioP1;P1;durP2;ratioP2;P2;SDS_P1;SDS_P2;PMS_P1;PMS_P2;Temp;Humidity;BMP_temperature;BMP_pressure;BME280_temperature;BME280_humidity;BME280_pressure;Samples;Min_cycle;Max_cycle;Signal;HPM_P1;HPM_P2
2022/12/21 00:00:28;;;;;;;0.57;0.57;;;;;;;7.64;74.25;96750.97;29395;198;63004;-59
2022/12/21 00:01:30;;;;;;;0.50;0.50;;;;;;;7.58;74.33;96749.41;29395;257;63004;-59
2022/12/21 00:02:01;;;;;;;;;;;;;;;7.56;74.67;96748.88;29996;983;6000;-59
2022/12/21 00:02:34;;;;;;;0.60;0.60;;;;;;;7.54;74.52;96747.53;29422;295;63000;-58
2022/12/21 00:03:06;;;;;;;0.60;0.60;;;;;;;7.52;75.08;96747.00;29394;218;64014;-59
2022/12/21 00:03:37;;;;;;;0.50;0.50;;;;;;;7.51;75.13;96745.38;29395;203;63005;-60
2022/12/21 00:04:09;;;;;;;0.50;0.50;;;;;;;7.52;74.94;96749.72;29394;312;64014;-59
2022/12/21 00:04:42;;;;;;;0.50;0.50;;;;;;;7.50;75.18;96749.19;29395;289;63005;-58
2022/12/21 00:05:14;;;;;;;0.50;0.50;;;;;;;7.51;76.10;96750.78;29395;280;63025;-57
2022/12/21 00:05:45;;;;;;;0.73;0.70;;;;;;;7.53;76.24;96748.63;29394;242;64009;-59
2022/12/21 00:06:16;;;;;;;0.60;0.60;;;;;;;7.49;76.42;96752.97;29395;234;63009;-59
2022/12/21 00:06:47;;;;;;;0.50;0.50;;;;;;;7.45;75.97;96752.69;29395;209;63005;-58
2022/12/21 00:07:20;;;;;;;0.50;0.50;;;;;;;7.46;76.73;96748.91;29395;210;63009;-58
2022/12/21 00:07:51;;;;;;;0.70;0.70;;;;;;;7.48;77.03;96748.63;29395;214;63004;-57
2022/12/21 00:08:23;;;;;;;0.50;0.50;;;;;;;7.46;77.37;96756.22;29394;264;64009;-58
2022/12/21 00:08:56;;;;;;;0.50;0.50;;;;;;;7.46;76.98;96753.50;29395;225;63004;-60
2022/12/21 00:09:28;;;;;;;0.60;0.60;;;;;;;7.55;77.34;96752.66;29394;218;64013;-58
2022/12/21 00:10:00;;;;;;;0.70;0.70;;;;;;;7.58;76.96;96751.31;29395;232;63004;-57
2022/12/21 00:10:31;;;;;;;0.50;0.50;;;;;;;7.56;76.94;96748.88;29395;264;63009;-58
2022/12/21 00:11:04;;;;;;;0.95;0.95;;;;;;;7.57;76.80;96747.00;29395;199;63015;-59
2022/12/21 00:11:36;;;;;;;0.60;0.60;;;;;;;7.64;77.01;96750.97;29395;248;63009;-58
2022/12/21 00:12:08;;;;;;;0.55;0.55;;;;;;;7.62;76.88;96749.66;29395;242;63005;-58
2022/12/21 00:12:40;;;;;;;0.50;0.50;;;;;;;7.63;77.04;96743.97;29395;204;63009;-58
2022/12/21 00:13:11;;;;;;;0.60;0.60;;;;;;;7.65;76.62;96744.50;29395;310;63005;-59
2022/12/21 00:13:43;;;;;;;2.58;2.47;;;;;;;7.65;77.07;96743.69;29395;219;63009;-59
2022/12/21 00:14:15;;;;;;;0.50;0.50;;;;;;;7.60;76.98;96743.75;29394;243;64009;-60
2022/12/21 00:14:46;;;;;;;0.60;0.60;;;;;;;7.60;77.13;96743.75;29395;197;63020;-58
2022/12/21 00:15:17;;;;;;;0.50;0.50;;;;;;;7.59;76.98;96744.81;29395;204;63004;-59
2022/12/21 00:15:57;;;;;;;0.80;0.80;;;;;;;7.59;77.51;96747.53;29395;234;63009;-58
2022/12/21 00:16:31;;;;;;;0.60;0.60;;;;;;;7.63;77.54;96743.16;29395;222;63004;-58
2022/12/21 00:17:02;;;;;;;0.77;0.77;;;;;;;7.65;77.52;96741.78;29395;236;63009;-58
2022/12/21 00:17:34;;;;;;;0.50;0.50;;;;;;;7.63;77.23;96737.75;29394;231;64004;-57
2022/12/21 00:18:05;;;;;;;0.50;0.50;;;;;;;7.62;77.23;96741.56;29395;277;63009;-58
2022/12/21 00:18:38;;;;;;;2.15;2.05;;;;;;;7.64;77.58;96744.78;29395;216;63005;-59
2022/12/21 00:19:13;;;;;;;0.50;0.50;;;;;;;7.65;78.02;96741.00;29395;220;63009;-58
2022/12/21 00:19:44;;;;;;;0.62;0.62;;;;;;;7.66;78.28;96731.81;29394;202;64009;-60
2022/12/21 00:20:16;;;;;;;0.50;0.50;;;;;;;7.64;78.41;96733.97;29395;220;63009;-59
2022/12/21 00:21:00;;;;;;;1.42;1.42;;;;;;;7.72;78.42;96734.22;29395;235;63005;-57
2022/12/21 00:21:35;;;;;;;0.50;0.50;;;;;;;7.79;77.72;96739.31;29395;203;63009;-58
2022/12/21 00:22:07;;;;;;;0.60;0.60;;;;;;;7.78;77.51;96737.69;29395;204;63005;-58
2022/12/21 00:22:38;;;;;;;0.55;0.55;;;;;;;7.84;77.80;96736.59;29395;202;63009;-60
2022/12/21 00:23:11;;;;;;;0.60;0.60;;;;;;;7.85;78.17;96732.78;29395;202;63004;-59
2022/12/21 00:23:44;;;;;;;0.50;0.50;;;;;;;7.83;78.13;96732.25;29395;262;63009;-58
2022/12/21 00:24:16;;;;;;;0.60;0.60;;;;;;;7.81;78.04;96734.44;29395;202;63004;-58
2022/12/21 00:24:48;;;;;;;0.50;0.50;;;;;;;7.78;77.81;96739.59;29394;211;64013;-58
2022/12/21 00:25:19;;;;;;;0.60;0.60;;;;;;;7.77;78.11;96733.38;29395;197;63004;-59
2022/12/21 00:25:50;;;;;;;0.50;0.50;;;;;;;7.73;78.57;96732.31;29395;214;63009;-57
2022/12/21 00:26:23;;;;;;;0.60;0.60;;;;;;;7.75;78.92;96735.53;29395;214;63005;-58
2022/12/21 00:26:55;;;;;;;0.60;0.60;;;;;;;7.77;78.96;96736.06;29395;202;63009;-58
2022/12/21 00:27:27;;;;;;;0.50;0.50;;;;;;;7.79;79.23;96733.91;29395;222;63005;-59
2022/12/21 00:27:58;;;;;;;0.70;0.70;;;;;;;7.83;78.97;96734.97;29395;273;63009;-58
2022/12/21 00:28:31;;;;;;;0.50;0.50;;;;;;;7.83;79.08;96734.16;29395;280;63005;-58
2022/12/21 00:29:04;;;;;;;0.60;0.60;;;;;;;7.83;80.41;96740.38;29395;237;63009;-59
2022/12/21 00:29:35;;;;;;;0.50;0.50;;;;;;;7.81;80.85;96739.84;29394;266;64009;-59
2022/12/21 00:30:08;;;;;;;0.50;0.50;;;;;;;7.82;79.75;96735.25;29394;245;64013;-58
2022/12/21 00:30:40;;;;;;;0.50;0.50;;;;;;;7.83;79.49;96736.84;29395;197;63004;-58
2022/12/21 00:31:18;;;;;;;0.50;0.50;;;;;;;7.82;80.61;96736.06;29394;250;64013;-59
2022/12/21 00:31:50;;;;;;;0.57;0.57;;;;;;;7.78;80.45;96735.00;29395;197;63004;-57
2022/12/21 00:32:21;;;;;;;0.57;0.57;;;;;;;7.76;80.39;96736.34;29395;224;63008;-57
2022/12/21 00:32:53;;;;;;;0.50;0.50;;;;;;;7.76;80.21;96734.47;29395;216;63004;-58
2022/12/21 00:33:24;;;;;;;0.50;0.50;;;;;;;7.76;80.34;96737.16;29395;227;63005;-58
2022/12/21 00:33:56;;;;;;;0.60;0.60;;;;;;;7.73;80.43;96732.31;29395;234;63005;-58
2022/12/21 00:34:27;;;;;;;0.60;0.60;;;;;;;7.71;80.49;96731.78;29395;226;63009;-58
2022/12/21 00:34:59;;;;;;;0.50;0.50;;;;;;;7.72;80.05;96730.69;29394;227;64009;-58
2022/12/21 00:35:30;;;;;;;0.50;0.50;;;;;;;7.75;80.22;96738.25;29394;227;64009;-57
2022/12/21 00:36:05;;;;;;;0.50;0.50;;;;;;;7.73;80.14;96737.72;29395;285;63005;-58
2022/12/21 00:36:36;;;;;;;0.50;0.50;;;;;;;7.74;80.18;96736.63;29395;228;63009;-57
2022/12/21 00:37:11;;;;;;;0.50;0.50;;;;;;;7.82;79.91;96730.66;29395;203;63005;-57
2022/12/21 00:37:46;;;;;;;0.50;0.50;;;;;;;7.82;79.80;96735.25;29394;207;64013;-58
2022/12/21 00:38:19;;;;;;;0.50;0.50;;;;;;;7.79;80.43;96731.19;29395;221;63004;-58
2022/12/21 00:38:54;;;;;;;0.50;0.50;;;;;;;7.78;80.31;96728.78;29395;247;63009;-59
2022/12/21 00:39:26;;;;;;;0.50;0.50;;;;;;;7.75;80.29;96735.53;29395;218;63004;-59
2022/12/21 00:39:57;;;;;;;0.60;0.60;;;;;;;7.81;80.30;96729.03;29395;251;63008;-63
2022/12/21 00:40:28;;;;;;;0.60;0.60;;;;;;;7.90;80.20;96731.97;29395;224;63004;-59
2022/12/21 00:41:04;;;;;;;0.50;0.50;;;;;;;7.93;79.93;96737.63;29395;213;63009;-57
2022/12/21 00:41:37;;;;;;;0.50;0.50;;;;;;;7.92;79.34;96730.59;29395;212;63005;-58
2022/12/21 00:42:14;;;;;;;0.60;0.60;;;;;;;7.92;79.46;96736.00;29394;203;64014;-58
2022/12/21 00:42:45;;;;;;;1.02;1.02;;;;;;;7.94;79.26;96733.03;29395;198;63005;-58
2022/12/21 00:43:17;;;;;;;0.50;0.50;;;;;;;7.92;79.52;96733.28;29395;224;63009;-58
2022/12/21 00:43:52;;;;;;;0.50;0.50;;;;;;;7.87;79.97;96732.50;29395;213;63005;-59
2022/12/21 00:44:24;;;;;;;0.50;0.50;;;;;;;7.83;79.92;96737.66;29395;207;63009;-58
2022/12/21 00:44:55;;;;;;;0.60;0.60;;;;;;;7.79;79.96;96742.00;29394;197;64009;-57
2022/12/21 00:45:28;;;;;;;0.60;0.60;;;;;;;7.83;79.72;96737.66;29395;235;63009;-58
2022/12/21 00:46:00;;;;;;;0.50;0.50;;;;;;;7.84;79.46;96733.06;29395;312;63004;-58
2022/12/21 00:46:33;;;;;;;0.68;0.68;;;;;;;7.84;79.73;96733.88;29395;258;63008;-59
2022/12/21 00:47:04;;;;;;;0.50;0.50;;;;;;;7.92;79.54;96733.28;29395;317;63004;-58
2022/12/21 00:47:35;;;;;;;0.50;0.50;;;;;;;7.91;79.35;96734.38;29395;196;63008;-58
2022/12/21 00:48:08;;;;;;;0.60;0.60;;;;;;;7.88;79.19;96734.13;29395;255;63011;-58
2022/12/21 00:48:39;;;;;;;0.50;0.50;;;;;;;7.85;79.37;96734.69;29395;197;63009;-58
2022/12/21 00:49:11;;;;;;;0.60;0.60;;;;;;;7.84;79.64;96728.47;29395;235;63005;-58
2022/12/21 00:49:42;;;;;;;0.57;0.57;;;;;;;7.86;79.49;96729.00;29394;232;64013;-59
2022/12/21 00:50:14;;;;;;;0.50;0.50;;;;;;;7.84;79.93;96728.47;29395;280;63005;-58
2022/12/21 00:50:45;;;;;;;0.50;0.50;;;;;;;7.88;79.39;96729.53;29395;210;63009;-59
2022/12/21 00:51:22;;;;;;;0.50;0.50;;;;;;;7.86;78.91;96729.00;29395;218;63005;-58
2022/12/21 00:51:53;;;;;;;0.50;0.50;;;;;;;7.82;79.61;96725.25;29395;218;63009;-58
2022/12/21 00:52:27;;;;;;;0.50;0.50;;;;;;;7.83;79.64;96726.88;29395;257;63004;-58
2022/12/21 00:52:58;;;;;;;0.50;0.50;;;;;;;7.83;79.68;96737.66;29395;197;63009;-59
2022/12/21 00:53:30;;;;;;;0.50;0.50;;;;;;;7.86;78.92;96729.00;29394;202;64009;-58
2022/12/21 00:54:03;;;;;;;0.50;0.50;;;;;;;7.88;79.11;96726.84;29395;212;63009;-58
2022/12/21 00:54:37;;;;;;;0.50;0.50;;;;;;;7.85;79.11;96729.28;29395;235;63004;-58
2022/12/21 00:55:10;;;;;;;0.60;0.60;;;;;;;7.86;79.23;96729.00;29395;221;63009;-57
2022/12/21 00:55:57;;;;;;;0.52;0.52;;;;;;;7.84;79.14;96728.47;29395;222;63005;-58
2022/12/21 00:56:29;;;;;;;0.50;0.50;;;;;;;7.81;79.33;96729.03;29395;239;63009;-65
2022/12/21 00:57:00;;;;;;;0.60;0.60;;;;;;;7.83;79.44;96726.06;29395;205;63005;-60
2022/12/21 00:57:31;;;;;;;0.50;0.50;;;;;;;7.86;79.11;96720.91;29395;205;63009;-58
2022/12/21 00:58:03;;;;;;;0.60;0.60;;;;;;;7.84;79.10;96725.78;29395;280;63005;-63
2022/12/21 00:58:35;;;;;;;0.50;0.50;;;;;;;7.82;78.85;96725.25;29394;198;64013;-57
2022/12/21 00:59:06;;;;;;;0.98;0.98;;;;;;;7.85;78.76;96729.28;29395;226;63004;-66
2022/12/21 00:59:38;;;;;;;0.50;0.50;;;;;;;7.82;78.88;96733.34;29395;204;63009;-58
2022/12/21 01:00:10;;;;;;;0.50;0.50;;;;;;;7.82;79.05;96730.66;29395;204;63004;-58
2022/12/21 01:00:46;;;;;;;0.60;0.60;;;;;;;7.81;78.99;96729.03;29395;220;63009;-58
2022/12/21 01:01:21;;;;;;;0.50;0.50;;;;;;;7.80;78.78;96732.81;29395;214;63004;-59
2022/12/21 01:01:52;;;;;;;0.50;0.50;;;;;;;7.80;78.58;96732.81;29395;262;63008;-58
2022/12/21 01:02:23;;;;;;;0.50;0.50;;;;;;;7.81;78.59;96723.63;29395;218;63009;-59
2022/12/21 01:02:54;;;;;;;0.50;0.50;;;;;;;7.80;78.52;96730.13;29394;240;64014;-66
2022/12/21 01:03:27;;;;;;;0.50;0.50;;;;;;;7.82;78.19;96724.44;29395;218;63005;-67
2022/12/21 01:03:59;;;;;;;0.50;0.50;;;;;;;7.87;77.84;96730.63;29395;274;63009;-58
2022/12/21 01:04:30;;;;;;;0.60;0.60;;;;;;;7.83;78.41;96729.56;29395;234;63005;-58
2022/12/21 01:05:01;;;;;;;0.50;0.50;;;;;;;7.80;78.31;96732.81;29395;249;63009;-59
2022/12/21 01:05:33;;;;;;;0.50;0.50;;;;;;;7.79;78.56;96730.41;29395;237;63010;-58
2022/12/21 01:06:08;;;;;;;0.60;0.60;;;;;;;7.80;78.09;96729.31;29395;230;63005;-58
2022/12/21 01:06:39;;;;;;;0.50;0.50;;;;;;;7.86;77.83;96730.91;29394;209;64009;-58
2022/12/21 01:07:10;;;;;;;0.50;0.50;;;;;;;7.87;77.78;96727.91;29395;226;63009;-65
2022/12/21 01:07:42;;;;;;;0.50;0.50;;;;;;;7.86;77.69;96723.59;29395;213;63004;-58
2022/12/21 01:08:15;;;;;;;1.00;0.90;;;;;;;7.90;77.98;96724.66;29395;327;63009;-58
2022/12/21 01:08:49;;;;;;;0.50;0.50;;;;;;;7.90;77.62;96732.78;29395;212;63004;-58
2022/12/21 01:09:20;;;;;;;0.50;0.50;;;;;;;7.92;77.78;96735.19;29395;249;63008;-58
2022/12/21 01:09:51;;;;;;;0.55;0.55;;;;;;;7.88;78.05;96728.72;29394;205;64008;-58
2022/12/21 01:10:23;;;;;;;0.50;0.50;;;;;;;7.82;77.97;96733.34;29395;258;63020;-60
2022/12/21 01:11:02;;;;;;;0.50;0.50;;;;;;;7.78;78.53;96735.00;29395;223;63005;-66
2022/12/21 01:11:34;;;;;;;0.50;0.50;;;;;;;7.72;78.94;96742.31;29395;223;63009;-58
2022/12/21 01:12:06;;;;;;;2.20;2.05;;;;;;;7.70;78.98;96732.88;29394;248;64009;-59
2022/12/21 01:12:37;;;;;;;0.50;0.50;;;;;;;7.69;78.93;96742.84;29395;207;63009;-59
2022/12/21 01:13:10;;;;;;;0.50;0.50;;;;;;;7.73;79.01;96737.72;29395;239;63005;-59
2022/12/21 01:13:41;;;;;;;85.87;23.40;;;;;;;7.76;78.99;96736.34;29384;239;66009;-58
2022/12/21 01:14:12;;;;;;;0.50;0.50;;;;;;;7.82;78.89;96736.06;29395;221;63004;-59
2022/12/21 01:14:43;;;;;;;0.50;0.50;;;;;;;7.81;78.87;96734.44;29395;220;63009;-66
2022/12/21 01:15:15;;;;;;;0.50;0.50;;;;;;;7.83;78.60;96726.88;29395;245;63004;-57
2022/12/21 01:15:49;;;;;;;0.60;0.60;;;;;;;7.91;78.70;96728.97;29395;241;63009;-59
2022/12/21 01:16:27;;;;;;;0.50;0.50;;;;;;;7.92;78.71;96736.00;29395;203;63004;-58
2022/12/21 01:16:58;;;;;;;0.50;0.50;;;;;;;7.87;78.70;96729.81;29394;204;64013;-58
2022/12/21 01:17:30;;;;;;;0.65;0.65;;;;;;;7.83;78.70;96729.56;29395;202;63004;-57
2022/12/21 01:18:01;;;;;;;0.57;0.57;;;;;;;7.82;78.76;96733.34;29395;203;63009;-58
2022/12/21 01:18:33;;;;;;;0.40;0.40;;;;;;;7.80;79.30;96738.22;29395;247;63005;-58
2022/12/21 01:19:07;;;;;;;0.68;0.68;;;;;;;7.75;79.23;96730.13;29395;227;63009;-58
2022/12/21 01:19:39;;;;;;;0.50;0.50;;;;;;;7.74;79.42;96733.94;29395;230;63005;-59
2022/12/21 01:20:11;;;;;;;0.50;0.50;;;;;;;7.72;79.58;96733.41;29395;246;63009;-57
2022/12/21 01:20:49;;;;;;;0.50;0.50;;;;;;;7.70;79.42;96743.66;29395;258;63005;-57
2022/12/21 01:21:23;;;;;;;0.95;0.95;;;;;;;7.67;80.00;96738.81;29395;202;63009;-66
2022/12/21 01:21:55;;;;;;;0.50;0.50;;;;;;;7.67;80.21;96725.31;29394;202;64009;-58
2022/12/21 01:22:26;;;;;;;0.50;0.50;;;;;;;7.69;80.40;96731.25;29395;197;63009;-59
2022/12/21 01:22:57;;;;;;;0.60;0.60;;;;;;;7.68;79.95;96725.03;29395;233;63004;-58
2022/12/21 01:23:29;;;;;;;0.50;0.50;;;;;;;7.73;80.17;96732.31;29395;202;63009;-58
2022/12/21 01:24:00;;;;;;;0.50;0.50;;;;;;;7.74;79.86;96731.22;29395;197;63004;-58
2022/12/21 01:24:31;;;;;;;0.50;0.50;;;;;;;7.75;80.09;96738.25;29395;196;63008;-58
2022/12/21 01:25:05;;;;;;;0.50;0.50;;;;;;;7.76;79.72;96729.06;29395;219;63004;-57
2022/12/21 01:25:37;;;;;;;0.60;0.60;;;;;;;7.76;80.45;96731.75;29395;212;63009;-58
2022/12/21 01:26:09;;;;;;;0.60;0.60;;;;;;;7.78;80.05;96734.19;29395;200;63005;-58
2022/12/21 01:26:40;;;;;;;1.17;1.17;;;;;;;7.78;79.85;96735.00;29394;257;64014;-58
2022/12/21 01:27:11;;;;;;;0.50;0.50;;;;;;;7.75;79.78;96730.13;29395;210;63005;-57
2022/12/21 01:27:43;;;;;;;0.50;0.50;;;;;;;7.72;80.18;96733.41;29395;231;63009;-58
2022/12/21 01:28:15;;;;;;;0.50;0.50;;;;;;;7.73;80.40;96737.72;29395;205;63005;-65
2022/12/21 01:28:47;;;;;;;0.50;0.50;;;;;;;7.71;80.53;96729.09;29394;265;64013;-59
2022/12/21 01:29:18;;;;;;;0.68;0.68;;;;;;;7.79;80.79;96735.78;29394;269;64009;-58
2022/12/21 01:29:49;;;;;;;0.55;0.55;;;;;;;7.79;80.51;96733.91;29395;230;63009;-60
2022/12/21 01:30:20;;;;;;;0.70;0.70;;;;;;;7.85;80.42;96735.50;29395;205;63009;-58
2022/12/21 01:30:51;;;;;;;0.50;0.50;;;;;;;7.83;80.10;96737.66;29395;206;63009;-58
2022/12/21 01:31:23;;;;;;;0.55;0.55;;;;;;;7.84;80.27;96744.69;29395;239;63004;-57
2022/12/21 01:31:54;;;;;;;0.60;0.60;;;;;;;7.81;80.35;96734.44;29395;223;63008;-58
2022/12/21 01:32:26;;;;;;;0.50;0.50;;;;;;;7.80;80.51;96732.81;29395;296;63004;-58
2022/12/21 01:32:58;;;;;;;0.50;0.50;;;;;;;7.81;80.60;96733.63;29394;219;64014;-59
2022/12/21 01:33:31;;;;;;;0.70;0.70;;;;;;;7.90;80.84;96732.78;29395;236;63005;-58
2022/12/21 01:34:02;;;;;;;0.60;0.60;;;;;;;7.89;80.52;96736.56;29394;203;64014;-60
2022/12/21 01:34:33;;;;;;;0.50;0.50;;;;;;;7.85;80.45;96735.50;29395;294;63005;-59
2022/12/21 01:35:06;;;;;;;0.50;0.50;;;;;;;7.82;80.50;96736.06;29395;220;63009;-59
2022/12/21 01:35:41;;;;;;;0.50;0.50;;;;;;;7.78;81.42;96745.78;29395;199;63005;-57
2022/12/21 01:36:15;;;;;;;0.80;0.80;;;;;;;7.81;81.53;96739.84;29395;237;63009;-59
2022/12/21 01:36:47;;;;;;;0.68;0.68;;;;;;;7.85;81.64;96732.78;29395;239;63004;-58
2022/12/21 01:37:19;;;;;;;0.60;0.60;;;;;;;7.86;81.85;96737.13;29395;209;63009;-58
2022/12/21 01:37:50;;;;;;;0.52;0.52;;;;;;;7.81;81.99;96739.03;29395;313;63004;-58
2022/12/21 01:38:25;;;;;;;0.50;0.50;;;;;;;7.84;82.45;96741.97;29395;277;63009;-56
2022/12/21 01:38:57;;;;;;;0.50;0.50;;;;;;;7.82;81.90;96736.06;29395;242;63004;-57
2022/12/21 01:39:30;;;;;;;0.52;0.52;;;;;;;7.76;82.07;96737.16;29394;202;64027;-56
2022/12/21 01:40:01;;;;;;;0.60;0.60;;;;;;;7.76;82.33;96734.47;29395;258;63004;-57
2022/12/21 01:40:32;;;;;;;0.57;0.57;;;;;;;7.75;82.54;96732.84;29395;209;63009;-56
2022/12/21 01:41:04;;;;;;;0.47;0.47;;;;;;;7.77;82.33;96733.38;29395;202;63005;-63
2022/12/21 01:41:35;;;;;;;0.50;0.50;;;;;;;7.78;82.45;96735.00;29394;212;64013;-56
2022/12/21 01:42:11;;;;;;;0.50;0.50;;;;;;;7.75;82.88;96735.53;29395;232;63005;-56
2022/12/21 01:42:46;;;;;;;0.57;0.57;;;;;;;7.72;83.22;96741.50;29394;229;64013;-56
2022/12/21 01:44:05;;;;;;;0.50;0.50;;;;;;;7.66;82.98;96737.19;29395;226;63005;-57
2022/12/21 01:45:21;;;;;;;0.50;0.50;;;;;;;7.72;83.16;96736.09;29394;231;64013;-58
2022/12/21 01:45:53;;;;;;;0.50;0.50;;;;;;;7.79;83.20;96739.31;29395;212;63004;-57
2022/12/21 01:46:50;;;;;;;0.60;0.60;;;;;;;7.79;83.52;96727.69;29395;204;63004;-58
2022/12/21 01:47:31;;;;;;;0.50;0.50;;;;;;;7.81;83.10;96729.03;29395;219;63005;-57
2022/12/21 01:48:09;;;;;;;0.60;0.60;;;;;;;7.84;83.25;96733.06;29417;205;63009;-60
2022/12/21 01:48:47;;;;;;;0.52;0.52;;;;;;;7.79;83.30;96731.19;29394;211;64009;-60
2022/12/21 01:49:27;;;;;;;0.57;0.57;;;;;;;7.73;83.30;96732.31;29394;211;64013;-58
2022/12/21 01:50:16;;;;;;;0.50;0.50;;;;;;;7.73;83.68;96721.50;29395;300;63005;-71
2022/12/21 01:51:01;;;;;;;0.50;0.50;;;;;;;7.70;83.52;96728.28;29395;197;63009;-59
2022/12/21 01:51:35;;;;;;;0.50;0.50;;;;;;;7.66;83.76;96726.41;29395;202;63004;-58
2022/12/21 01:52:12;;;;;;;0.52;0.52;;;;;;;7.63;83.74;96724.25;29395;349;63009;-58
2022/12/21 01:52:44;;;;;;;0.60;0.60;;;;;;;7.67;84.25;96722.63;29395;202;63004;-60
2022/12/21 01:53:37;;;;;;;0.57;0.57;;;;;;;7.70;84.43;96724.75;29395;249;63009;-59
2022/12/21 01:54:21;;;;;;;0.50;0.50;;;;;;;7.70;84.28;96725.56;29394;196;64008;-57
2022/12/21 01:54:57;;;;;;;0.50;0.50;;;;;;;7.78;84.52;96718.78;29394;203;64014;-59
2022/12/21 01:55:29;;;;;;;0.60;0.60;;;;;;;7.78;84.33;96718.78;29395;262;63005;-61
2022/12/21 01:56:07;;;;;;;0.60;0.60;;;;;;;7.76;84.57;96720.94;29395;319;63009;-58
2022/12/21 01:56:43;;;;;;;0.60;0.60;;;;;;;7.72;84.64;96711.78;29395;263;63005;-59
2022/12/21 01:57:16;;;;;;;0.55;0.55;;;;;;;7.71;85.12;96718.28;29395;210;63013;-58
2022/12/21 01:57:48;;;;;;;0.50;0.50;;;;;;;7.73;85.10;96721.50;29395;205;63005;-58
2022/12/21 01:58:23;;;;;;;0.88;0.88;;;;;;;7.70;85.24;96722.06;29395;247;63020;-58
2022/12/21 01:58:56;;;;;;;0.70;0.70;;;;;;;7.65;85.44;96724.78;29395;225;63004;-58
2022/12/21 01:59:32;;;;;;;0.50;0.50;;;;;;;7.63;85.53;96716.16;29394;221;64013;-59
2022/12/21 02:00:08;;;;;;;0.50;0.50;;;;;;;7.61;85.59;96718.34;29394;221;64009;-58
2022/12/21 02:00:40;;;;;;;0.60;0.60;;;;;;;7.61;85.85;96716.47;29395;197;63009;-58
2022/12/21 02:01:11;;;;;;;0.50;0.50;;;;;;;7.73;85.57;96716.09;29396;219;63004;-58
2022/12/21 02:01:43;;;;;;;0.50;0.50;;;;;;;7.80;85.29;96715.81;29396;207;63015;-57
2022/12/21 02:02:37;;;;;;;0.50;0.50;;;;;;;7.74;85.52;96718.53;29396;224;63005;-58
2022/12/21 02:03:12;;;;;;;0.50;0.50;;;;;;;7.73;85.57;96718.81;29396;197;63009;-57
2022/12/21 02:03:49;;;;;;;0.60;0.60;;;;;;;7.66;86.29;96715.59;29396;220;63005;-57
2022/12/21 02:04:21;;;;;;;0.50;0.50;;;;;;;7.62;86.15;96720.75;29396;199;63009;-58
2022/12/21 02:04:53;;;;;;;0.60;0.60;;;;;;;7.71;86.40;96718.28;29396;235;63005;-59
2022/12/21 02:05:55;;;;;;;0.50;0.50;;;;;;;7.69;86.24;96725.84;29395;203;64013;-65
2022/12/21 02:06:45;;;;;;;0.50;0.50;;;;;;;7.62;85.80;96714.56;29396;198;63004;-58
2022/12/21 02:07:17;;;;;;;0.50;0.50;;;;;;;7.61;85.86;96718.34;29396;373;63009;-58
2022/12/21 02:07:49;;;;;;;0.60;0.60;;;;;;;7.60;86.29;96716.75;29396;265;63009;-57
2022/12/21 02:08:21;;;;;;;0.80;0.80;;;;;;;7.62;86.98;96719.97;29396;236;63009;-58
2022/12/21 02:08:54;;;;;;;1.58;1.58;;;;;;;7.59;86.98;96729.44;29396;221;63004;-58
2022/12/21 02:09:30;;;;;;;0.50;0.50;;;;;;;7.58;87.17;96716.19;29396;220;63008;-57
2022/12/21 02:10:02;;;;;;;0.50;0.50;;;;;;;7.56;87.29;96723.78;29395;225;64009;-58
2022/12/21 02:10:34;;;;;;;0.55;0.55;;;;;;;7.57;86.99;96706.50;29396;220;63009;-57
2022/12/21 02:11:06;;;;;;;0.50;0.50;;;;;;;7.61;87.15;96719.16;29396;214;63005;-58
2022/12/21 02:11:38;;;;;;;0.60;0.60;;;;;;;7.61;87.06;96715.66;29396;202;63009;-58
2022/12/21 02:12:14;;;;;;;0.50;0.50;;;;;;;7.57;87.20;96723.50;29396;276;63005;-57
2022/12/21 02:12:53;;;;;;;0.50;0.50;;;;;;;7.56;87.33;96721.06;29395;216;64013;-58
2022/12/21 02:13:25;;;;;;;0.50;0.50;;;;;;;7.56;87.42;96721.06;29396;197;63005;-59
2022/12/21 02:14:00;;;;;;;0.50;0.50;;;;;;;7.55;87.71;96714.06;29396;207;63009;-59
2022/12/21 02:14:36;;;;;;;0.50;0.50;;;;;;;7.56;87.82;96721.06;29396;202;63007;-58
2022/12/21 02:15:09;;;;;;;0.60;0.60;;;;;;;7.54;87.85;96718.66;29395;241;64004;-58
2022/12/21 02:16:24;;;;;;;0.60;0.60;;;;;;;7.55;88.49;96724.84;29396;225;63004;-58
2022/12/21 02:17:13;;;;;;;0.50;0.50;;;;;;;7.57;88.79;96717.28;29395;225;64013;-58
2022/12/21 02:17:58;;;;;;;0.65;0.65;;;;;;;7.58;88.62;96725.13;29396;213;63005;-58
2022/12/21 02:19:08;;;;;;;0.57;0.57;;;;;;;7.54;88.49;96720.53;29396;306;63009;-59
2022/12/21 02:20:16;;;;;;;0.70;0.70;;;;;;;7.59;89.10;96715.13;29396;219;63009;-58
2022/12/21 02:21:22;;;;;;;0.60;0.60;;;;;;;7.59;88.86;96707.81;29396;275;63009;-59
2022/12/21 02:22:00;;;;;;;0.88;0.88;;;;;;;7.63;88.83;96708.06;29395;282;64009;-58
2022/12/21 02:22:56;;;;;;;0.50;0.50;;;;;;;7.61;88.48;96702.97;29396;246;63017;-57
2022/12/21 02:24:17;;;;;;;0.50;0.50;;;;;;;7.53;88.41;96716.22;29396;216;63011;-58
2022/12/21 02:25:25;;;;;;;0.80;0.80;;;;;;;7.62;89.58;96712.66;29396;216;63009;-58
2022/12/21 02:26:29;;;;;;;0.60;0.60;;;;;;;7.57;89.63;96720.00;29395;285;64009;-59
2022/12/21 02:27:55;;;;;;;0.50;0.50;;;;;;;7.49;90.00;96710.56;29396;212;63009;-58
2022/12/21 02:29:08;;;;;;;0.60;0.60;;;;;;;7.48;90.69;96713.53;29396;209;63005;-64
2022/12/21 02:30:18;;;;;;;0.60;0.60;;;;;;;7.54;90.44;96707.84;29418;275;63009;-57
2022/12/21 02:31:17;;;;;;;0.50;0.50;;;;;;;7.56;90.35;96718.38;29396;208;63004;-57
2022/12/21 02:32:13;;;;;;;0.50;0.50;;;;;;;7.46;91.06;96710.31;29395;225;64013;-58
2022/12/21 02:33:27;;;;;;;0.60;0.60;;;;;;;7.39;92.00;96718.69;29396;228;63009;-57
2022/12/21 02:34:34;;;;;;;0.60;0.60;;;;;;;7.33;91.57;96717.09;29396;286;63005;-57
2022/12/21 02:35:41;;;;;;;0.50;0.50;;;;;;;7.27;92.40;96719.03;29396;246;63009;-59
2022/12/21 02:36:34;;;;;;;0.60;0.60;;;;;;;7.26;92.27;96717.44;29396;202;63005;-58
2022/12/21 02:37:29;;;;;;;0.50;0.50;;;;;;;7.31;92.25;96714.69;29395;208;64013;-59
2022/12/21 02:38:30;;;;;;;0.60;0.60;;;;;;;7.34;92.75;96710.63;29396;273;63004;-58
2022/12/21 02:39:33;;;;;;;0.50;0.50;;;;;;;7.31;92.11;96713.88;29395;257;64013;-58
2022/12/21 02:40:19;;;;;;;0.50;0.50;;;;;;;7.32;92.00;96704.69;29395;208;64009;-58
2022/12/21 02:41:28;;;;;;;0.50;0.50;;;;;;;7.33;92.91;96707.13;29396;260;63009;-58
2022/12/21 02:44:12;;;;;;;0.60;0.60;;;;;;;7.31;93.03;96709.28;29396;229;63005;-64
2022/12/21 02:44:55;;;;;;;0.60;0.60;;;;;;;7.37;92.84;96701.97;29396;213;63004;-58
2022/12/21 02:45:53;;;;;;;0.60;0.60;;;;;;;7.40;92.08;96712.22;29418;198;64013;-58
2022/12/21 02:46:47;;;;;;;0.50;0.50;;;;;;;7.40;92.03;96718.44;29397;210;63004;-58
2022/12/21 02:47:38;;;;;;;0.60;0.60;;;;;;;7.39;92.41;96719.50;29396;220;64014;-57
2022/12/21 02:48:21;;;;;;;0.73;0.73;;;;;;;7.37;92.58;96716.28;29418;271;64009;-58
2022/12/21 02:49:05;;;;;;;0.50;0.50;;;;;;;7.39;92.60;96716.81;29397;261;63009;-57
2022/12/21 02:49:58;;;;;;;0.60;0.60;;;;;;;7.37;92.55;96721.69;29397;237;63005;-58
2022/12/21 02:50:39;;;;;;;0.55;0.55;;;;;;;7.38;92.61;96715.19;29396;278;64004;-59
2022/12/21 02:51:18;;;;;;;0.60;0.60;;;;;;;7.37;92.18;96716.28;29419;220;63009;-58
2022/12/21 02:52:11;;;;;;;0.50;0.50;;;;;;;7.42;93.45;96717.34;29396;215;64009;-58
2022/12/21 02:53:12;;;;;;;0.55;0.55;;;;;;;7.48;92.99;96713.53;29397;214;63009;-58
2022/12/21 02:53:45;;;;;;;0.60;0.60;;;;;;;7.44;92.93;96710.59;29397;290;63004;-58
2022/12/21 02:54:17;;;;;;;0.50;0.50;;;;;;;7.44;92.86;96707.09;29397;217;63009;-58
2022/12/21 02:54:57;;;;;;;0.50;0.50;;;;;;;7.40;93.08;96702.22;29397;234;63013;-59
2022/12/21 02:55:33;;;;;;;0.50;0.50;;;;;;;7.37;93.16;96705.47;29397;218;63009;-59
2022/12/21 02:56:17;;;;;;;0.50;0.50;;;;;;;7.34;93.16;96706.03;29397;266;63005;-58
2022/12/21 02:56:49;;;;;;;0.50;0.50;;;;;;;7.37;93.52;96702.78;29396;233;64013;-57
2022/12/21 02:57:34;;;;;;;0.60;0.60;;;;;;;7.36;93.82;96700.34;29397;213;63005;-59
2022/12/21 02:58:18;;;;;;;0.60;0.60;;;;;;;7.37;94.08;96700.09;29396;214;64013;-60
2022/12/21 02:58:49;;;;;;;0.70;0.70;;;;;;;7.40;94.28;96699.53;29397;225;63004;-58
2022/12/21 02:59:27;;;;;;;0.60;0.60;;;;;;;7.39;94.30;96699.81;29396;374;63009;-58
2022/12/21 03:00:03;;;;;;;0.50;0.50;;;;;;;7.40;94.15;96704.94;29396;210;63004;-57
2022/12/21 03:00:35;;;;;;;0.60;0.60;;;;;;;7.38;94.34;96698.19;29396;206;63009;-58
2022/12/21 03:01:36;;;;;;;0.60;0.60;;;;;;;7.33;94.09;96695.50;29396;196;63004;-57
2022/12/21 03:03:47;;;;;;;0.60;0.60;;;;;;;7.37;94.42;96696.56;29418;206;63009;-58